Time;durP1;ratioP1;P1;durP2;ratioP2;P2;SDS_P1;SDS_P2;PMS_P1;PMS_P2;Temp;Humidity;BMP_temperature;BMP_pressure;BME280_temperature;BME280_humidity;BME280_pressure;Samples;Min_cycle;Max_cycle;Signal;HPM_P1;HPM_P2
2022/05/17 00:01:00;;;;;;;;;10.25;6.25;;;;;21.29;55.58;101764.19;2391199;28;45418;-81
2022/05/17 00:02:10;;;;;;;;;8.00;8.00;;;;;21.28;55.56;101766.03;2394793;28;47560;-81
2022/05/17 00:03:21;;;;;;;;;12.00;8.25;;;;;21.28;55.48;101763.34;2398906;28;45347;-81
2022/05/17 00:04:33;;;;;;;;;9.00;8.00;;;;;21.28;55.57;101766.03;2392658;28;45272;-81
2022/05/17 00:05:45;;;;;;;;;8.75;7.25;;;;;21.25;55.98;101759.03;2391751;28;45326;-81
2022/05/17 00:06:56;;;;;;;;;7.50;7.50;;;;;21.24;55.85;101754.66;2391643;28;45290;-81
2022/05/17 00:08:06;;;;;;;;;6.75;6.75;;;;;21.24;55.98;101759.13;2392071;28;45289;-81
2022/05/17 00:09:17;;;;;;;;;9.00;7.75;;;;;21.24;55.51;101760.00;2385034;28;48358;-81
2022/05/17 00:10:28;;;;;;;;;9.00;7.00;;;;;21.22;56.07;101758.38;2385094;28;44692;-81
2022/05/17 00:11:38;;;;;;;;;7.25;6.25;;;;;21.20;56.04;101761.16;2390948;28;45672;-81
2022/05/17 00:12:50;;;;;;;;;6.25;6.25;;;;;21.20;55.63;101760.28;2390852;28;45421;-80
2022/05/17 00:14:01;;;;;;;;;9.00;8.25;;;;;21.19;55.56;101756.75;2385100;28;47044;-80
2022/05/17 00:15:11;;;;;;;;;10.50;7.50;;;;;21.19;55.74;101767.44;2394237;28;45328;-81
2022/05/17 00:16:23;;;;;;;;;7.00;7.00;;;;;21.18;55.84;101762.19;2388903;28;46186;-80
2022/05/17 00:17:34;;;;;;;;;8.25;7.50;;;;;21.20;56.14;101761.16;2390709;28;45549;-80
2022/05/17 00:18:44;;;;;;;;;7.25;6.50;;;;;21.21;55.48;101764.69;2392401;28;46059;-80
2022/05/17 00:19:55;;;;;;;;;5.00;4.00;;;;;21.19;56.14;101751.41;2392559;28;45217;-80
2022/05/17 00:21:05;;;;;;;;;7.25;7.25;;;;;21.22;56.04;101763.72;2392495;28;45275;-80
2022/05/17 00:22:16;;;;;;;;;6.25;5.25;;;;;21.22;55.88;101753.03;2391725;28;45149;-80
2022/05/17 00:23:26;;;;;;;;;6.00;6.00;;;;;21.20;55.54;101749.59;2392357;28;45411;-80
2022/05/17 00:24:37;;;;;;;;;9.00;6.25;;;;;21.22;55.80;101753.03;2392639;28;45200;-80
2022/05/17 00:25:48;;;;;;;;;6.00;6.00;;;;;21.22;55.63;101753.03;2392052;28;45292;-80
2022/05/17 00:26:59;;;;;;;;;9.50;6.00;;;;;21.24;56.08;101753.78;2392355;28;45428;-81
2022/05/17 00:28:09;;;;;;;;;3.75;3.75;;;;;21.23;55.90;101749.41;2392418;28;46158;-81
2022/05/17 00:29:20;;;;;;;;;7.00;5.00;;;;;21.26;56.04;101754.53;2393294;28;45365;-80
2022/05/17 00:30:31;;;;;;;;;7.25;5.50;;;;;21.24;55.32;101748.44;2395633;28;46317;-81
2022/05/17 00:31:42;;;;;;;;;6.25;5.25;;;;;21.24;55.87;101751.97;2391658;28;45354;-81
2022/05/17 00:32:52;;;;;;;;;6.00;6.00;;;;;21.27;55.99;101750.06;2386443;28;45432;-80
2022/05/17 00:34:04;;;;;;;;;4.75;4.75;;;;;21.27;55.61;101744.72;2394121;28;45331;-81
2022/05/17 00:35:15;;;;;;;;;9.00;8.00;;;;;21.28;55.48;101744.63;2392391;28;46497;-82
2022/05/17 00:36:26;;;;;;;;;6.75;6.00;;;;;21.29;55.52;101746.34;2392498;28;45141;-82
2022/05/17 00:37:36;;;;;;;;;8.00;6.25;;;;;21.31;55.58;101751.59;2400705;28;47439;-82
2022/05/17 00:38:47;;;;;;;;;6.00;6.00;;;;;21.32;55.87;101746.16;2398740;28;45261;-81
2022/05/17 00:39:57;;;;;;;;;5.50;4.75;;;;;21.32;55.80;101743.47;2392095;28;46461;-81
2022/05/17 00:41:07;;;;;;;;;7.25;6.00;;;;;21.34;55.45;101749.56;2392410;28;44614;-81
2022/05/17 00:42:18;;;;;;;;;6.75;6.50;;;;;21.34;56.02;101751.38;2386764;28;46289;-81
2022/05/17 00:45:02;;;;;;;;;5.25;5.25;;;;;21.33;55.94;101742.53;2395603;28;45888;-81
2022/05/17 00:46:12;;;;;;;;;6.00;4.75;;;;;21.33;56.22;101745.19;2392405;28;44722;-80
2022/05/17 00:47:32;;;;;;;;;7.00;4.50;;;;;21.34;56.22;101746.91;2400581;28;46997;-80
2022/05/17 00:48:43;;;;;;;;;6.00;5.00;;;;;21.33;55.56;101745.19;2397502;28;44634;-80
2022/05/17 00:50:03;;;;;;;;;5.25;5.25;;;;;21.33;56.08;101744.34;2392188;28;45356;-81
2022/05/17 00:51:13;;;;;;;;;5.50;5.50;;;;;21.30;55.99;101742.72;2392519;28;45220;-81
2022/05/17 00:52:28;;;;;;;;;7.00;5.00;;;;;21.30;55.76;101745.38;2391527;28;46450;-80
2022/05/17 00:53:39;;;;;;;;;9.50;7.00;;;;;21.29;56.36;101742.78;2390731;28;45224;-81
2022/05/17 00:54:53;;;;;;;;;7.75;6.75;;;;;21.30;56.02;101740.03;2392174;28;45393;-81
2022/05/17 00:56:12;;;;;;;;;7.25;6.00;;;;;21.30;56.29;101742.72;2392257;28;45465;-80
2022/05/17 00:57:31;;;;;;;;;10.00;5.50;;;;;21.29;56.22;101743.66;2391814;28;46224;-80
2022/05/17 00:58:50;;;;;;;;;6.50;5.25;;;;;21.28;55.83;101741.09;2392283;28;44718;-81
2022/05/17 01:00:06;;;;;;;;;8.50;6.00;;;;;21.28;56.33;101739.28;2391765;28;45441;-80
2022/05/17 01:01:22;;;;;;;;;6.00;6.00;;;;;21.25;56.12;101737.66;2392275;28;45240;-81
2022/05/17 01:02:33;;;;;;;;;8.50;7.00;;;;;21.25;56.08;101736.78;2391112;28;48311;-80
2022/05/17 01:03:52;;;;;;;;;8.50;6.00;;;;;21.25;56.43;101742.13;2391783;28;45351;-81
2022/05/17 01:05:04;;;;;;;;;8.50;6.00;;;;;21.24;56.58;101740.41;2391320;28;47601;-83
2022/05/17 01:06:17;;;;;;;;;3.75;3.50;;;;;21.24;56.00;101741.28;2391254;28;45482;-82
2022/05/17 01:07:36;;;;;;;;;8.50;5.50;;;;;21.23;56.61;101738.72;2384378;28;48395;-81
2022/05/17 01:08:46;;;;;;;;;5.75;5.75;;;;;21.23;56.46;101733.38;2391842;28;45355;-80
2022/05/17 01:09:57;;;;;;;;;6.00;6.00;;;;;21.22;56.47;101736.97;2391492;28;47052;-81
2022/05/17 01:11:07;;;;;;;;;5.75;5.00;;;;;21.21;56.12;101737.94;2391460;28;44767;-80
2022/05/17 01:12:17;;;;;;;;;6.75;6.25;;;;;21.20;56.73;101738.91;2387320;28;45399;-81
2022/05/17 01:14:57;;;;;;;;;6.00;5.50;;;;;21.18;56.58;101735.47;2395540;28;45356;-82
2022/05/17 01:16:07;;;;;;;;;7.00;7.00;;;;;21.17;56.69;101737.28;2392328;28;45287;-82
2022/05/17 01:17:18;;;;;;;;;8.25;6.00;;;;;21.14;56.68;101735.66;2392010;28;45278;-83
2022/05/17 01:18:32;;;;;;;;;7.00;7.00;;;;;21.13;56.71;101733.94;2400820;28;45340;-83
2022/05/17 01:19:43;;;;;;;;;6.50;6.50;;;;;21.11;56.28;101730.50;2397636;28;45419;-83
2022/05/17 01:20:56;;;;;;;;;6.75;6.00;;;;;21.11;56.81;101733.16;2392184;28;45316;-83
2022/05/17 01:22:07;;;;;;;;;8.00;6.25;;;;;21.10;57.22;101734.13;2390612;28;47333;-83
2022/05/17 01:23:17;;;;;;;;;6.00;6.00;;;;;21.09;57.24;101726.19;2391737;28;45245;-84
2022/05/17 01:24:28;;;;;;;;;7.50;5.75;;;;;21.08;57.34;101724.50;2392016;28;45248;-84
2022/05/17 01:25:40;;;;;;;;;6.25;6.25;;;;;21.06;57.07;101727.28;2390908;28;45297;-83
2022/05/17 01:27:14;;;;;;;;;10.50;6.25;;;;;21.05;56.90;101727.34;2391590;28;46219;-84
2022/05/17 01:28:29;;;;;;;;;8.00;6.00;;;;;21.04;57.35;101729.16;2392290;28;44559;-84
2022/05/17 01:29:42;;;;;;;;;5.00;5.00;;;;;21.02;57.13;101729.25;2400510;28;47579;-84
2022/05/17 01:30:54;;;;;;;;;6.00;6.00;;;;;21.03;57.73;101732.78;2391176;28;45286;-84
2022/05/17 01:32:05;;;;;;;;;8.50;6.50;;;;;21.02;57.49;101726.59;2381802;28;48052;-84
2022/05/17 01:33:19;;;;;;;;;5.25;5.25;;;;;21.03;57.65;101732.78;2390358;28;45474;-84
2022/05/17 01:34:29;;;;;;;;;8.75;6.50;;;;;21.01;57.05;101730.19;2391345;28;48061;-84
2022/05/17 01:35:40;;;;;;;;;8.25;6.00;;;;;21.00;57.43;101727.59;2388553;28;45277;-84
2022/05/17 01:36:51;;;;;;;;;6.50;6.50;;;;;20.99;57.45;101726.75;2393870;28;47276;-84
2022/05/17 01:38:02;;;;;;;;;6.75;6.00;;;;;20.99;57.30;101731.25;2398541;28;45336;-85
2022/05/17 01:39:13;;;;;;;;;5.50;5.50;;;;;20.97;57.61;101725.97;2389441;28;46136;-84
2022/05/17 01:40:24;;;;;;;;;10.50;7.00;;;;;20.97;57.47;101733.13;2391409;28;44730;-84
2022/05/17 01:41:34;;;;;;;;;8.25;6.50;;;;;20.96;57.48;101731.44;2391707;28;46406;-84
2022/05/17 01:42:44;;;;;;;;;6.75;6.75;;;;;20.95;57.44;101735.03;2391761;28;46542;-84
2022/05/17 01:43:55;;;;;;;;;7.25;6.25;;;;;20.95;57.58;101729.69;2392000;28;46439;-84
2022/05/17 01:45:06;;;;;;;;;7.50;6.00;;;;;20.92;57.61;101726.25;2391754;28;45270;-84
2022/05/17 01:46:16;;;;;;;;;7.00;7.00;;;;;20.92;57.48;101728.06;2391064;28;48238;-84
2022/05/17 01:47:28;;;;;;;;;6.25;6.25;;;;;20.90;57.67;101733.53;2391584;28;45234;-84
2022/05/17 01:48:39;;;;;;;;;7.00;7.00;;;;;20.88;57.46;101730.09;2391972;28;45777;-84
2022/05/17 01:49:50;;;;;;;;;6.00;6.00;;;;;20.86;57.35;101723.97;2391394;28;44694;-84
2022/05/17 01:51:00;;;;;;;;;7.00;5.25;;;;;20.85;57.58;101724.06;2391637;28;45374;-84
2022/05/17 01:52:11;;;;;;;;;7.25;7.25;;;;;20.84;58.04;101727.69;2392053;28;45358;-84
2022/05/17 01:53:21;;;;;;;;;5.75;5.50;;;;;20.82;57.67;101725.09;2390596;28;47253;-84
2022/05/17 01:54:32;;;;;;;;;11.00;8.00;;;;;20.82;57.71;101733.13;2393851;28;45335;-84
2022/05/17 01:55:42;;;;;;;;;8.50;8.00;;;;;20.80;57.71;101721.69;2397849;28;46383;-84
2022/05/17 01:56:52;;;;;;;;;9.25;6.25;;;;;20.78;57.96;101724.44;2391434;28;44658;-84
2022/05/17 01:58:03;;;;;;;;;6.25;6.25;;;;;20.78;58.03;101728.94;2385488;28;48413;-87
2022/05/17 01:59:14;;;;;;;;;7.00;6.00;;;;;20.79;57.74;101733.34;2391245;28;45438;-86
2022/05/17 02:00:25;;;;;;;;;8.00;6.50;;;;;20.77;58.21;101727.19;2390673;28;47183;-86
2022/05/17 02:01:35;;;;;;;;;7.75;7.00;;;;;20.76;57.98;101721.03;2391278;28;45230;-86
2022/05/17 02:02:46;;;;;;;;;9.25;8.00;;;;;20.75;57.81;101719.28;2400370;28;48392;-86
2022/05/17 02:03:56;;;;;;;;;9.50;7.25;;;;;20.75;57.77;101726.44;2397831;28;46470;-86
2022/05/17 02:05:08;;;;;;;;;6.75;5.00;;;;;20.73;57.68;101728.34;2384822;28;48322;-86
2022/05/17 02:06:19;;;;;;;;;6.50;6.50;;;;;20.73;57.88;101725.69;2392864;28;45308;-86
2022/05/17 02:07:29;;;;;;;;;7.50;7.00;;;;;20.72;58.27;101726.66;2392754;28;46605;-86
2022/05/17 02:08:40;;;;;;;;;7.75;7.00;;;;;20.71;57.69;101730.25;2392802;28;45263;-86
2022/05/17 02:09:50;;;;;;;;;7.00;6.00;;;;;20.71;57.87;101732.94;2392399;28;48261;-86
2022/05/17 02:11:01;;;;;;;;;8.00;6.75;;;;;20.70;58.04;101742.75;2392569;28;44697;-86
2022/05/17 02:12:11;;;;;;;;;8.00;6.25;;;;;20.69;58.12;101747.22;2392458;28;47248;-86
2022/05/17 02:13:22;;;;;;;;;6.00;6.00;;;;;20.68;57.70;101761.53;2392820;28;45411;-86
2022/05/17 02:14:32;;;;;;;;;6.00;5.00;;;;;20.68;57.52;101756.19;2392383;28;48041;-86
2022/05/17 02:15:43;;;;;;;;;7.00;6.50;;;;;20.68;57.66;101750.88;2392550;28;45308;-87
2022/05/17 02:16:53;;;;;;;;;7.00;5.25;;;;;20.68;57.83;101745.53;2393036;28;45413;-81
2022/05/17 02:18:04;;;;;;;;;6.75;6.75;;;;;20.68;57.15;101744.66;2392574;28;45421;-82
2022/05/17 02:19:19;;;;;;;;;5.00;5.00;;;;;20.67;57.45;101737.56;2392069;28;47100;-83
2022/05/17 02:20:30;;;;;;;;;5.75;5.75;;;;;20.66;57.52;101743.88;2392846;28;45425;-82
2022/05/17 02:21:40;;;;;;;;;8.00;5.25;;;;;20.67;57.50;101738.44;2393020;28;45925;-82
2022/05/17 02:22:51;;;;;;;;;5.50;5.50;;;;;20.68;57.15;101740.19;2392578;28;45154;-83
2022/05/17 02:24:05;;;;;;;;;5.50;5.50;;;;;20.69;56.90;101733.88;2392528;28;46521;-84
2022/05/17 02:25:15;;;;;;;;;6.75;5.00;;;;;20.72;57.25;101742.66;2392391;28;45437;-83
2022/05/17 02:26:25;;;;;;;;;6.50;6.50;;;;;20.68;56.88;101748.19;2393449;28;46238;-83
2022/05/17 02:27:36;;;;;;;;;6.00;5.75;;;;;20.74;56.96;101746.94;2393240;28;45193;-83
2022/05/17 02:28:47;;;;;;;;;6.75;6.75;;;;;20.74;57.34;101744.25;2392977;28;45370;-83
2022/05/17 02:29:57;;;;;;;;;6.00;6.00;;;;;20.76;56.44;101741.53;2392895;28;44761;-83
2022/05/17 02:31:11;;;;;;;;;7.00;6.00;;;;;20.78;56.56;101740.47;2393138;28;46245;-83
2022/05/17 02:32:22;;;;;;;;;4.75;4.75;;;;;;;;2393179;28;45408;-83
2022/05/17 02:33:32;;;;;;;;;5.25;4.25;;;;;;;;2394122;28;46913;-83
2022/05/17 02:34:43;;;;;;;;;7.00;7.00;;;;;20.86;56.98;101744.50;2392800;28;45186;-83
2022/05/17 02:35:53;;;;;;;;;6.00;6.00;;;;;20.87;56.60;101747.06;2383663;28;45685;-83
2022/05/17 02:37:04;;;;;;;;;4.00;3.00;;;;;20.89;56.92;101750.50;2389527;28;45252;-83
2022/05/17 02:38:14;;;;;;;;;6.50;5.75;;;;;20.91;56.60;101756.59;2401424;28;47271;-82
2022/05/17 02:39:25;;;;;;;;;7.25;6.25;;;;;20.93;56.65;101756.53;2399153;28;44642;-83
2022/05/17 02:40:36;;;;;;;;;7.25;6.00;;;;;20.94;56.63;101750.22;2403818;28;47423;-83
2022/05/17 02:41:46;;;;;;;;;5.00;3.50;;;;;20.94;56.49;101738.69;2406084;27;45227;-83
2022/05/17 02:42:57;;;;;;;;;7.50;6.25;;;;;20.97;55.97;101744.69;2391689;28;47120;-83
2022/05/17 02:44:07;;;;;;;;;7.50;5.25;;;;;20.96;55.99;101748.31;2385800;28;45146;-83
2022/05/17 02:45:18;;;;;;;;;5.75;5.00;;;;;20.99;56.23;101752.63;2392193;28;46190;-83
2022/05/17 02:46:30;;;;;;;;;6.00;6.00;;;;;20.98;56.77;101751.75;2393145;28;44635;-82
2022/05/17 02:47:40;;;;;;;;;5.75;5.00;;;;;21.00;56.41;101759.66;2393029;28;46572;-83
2022/05/17 02:48:50;;;;;;;;;7.25;5.00;;;;;20.99;56.20;101757.97;2392808;28;45461;-83
2022/05/17 02:50:01;;;;;;;;;5.75;5.50;;;;;21.00;55.92;101747.22;2393030;28;45985;-83
2022/05/17 02:51:14;;;;;;;;;4.00;4.00;;;;;21.00;56.29;101747.22;2393070;28;45390;-83
2022/05/17 02:52:24;;;;;;;;;5.00;5.00;;;;;21.00;56.26;101746.31;2392900;28;45574;-83
2022/05/17 02:53:35;;;;;;;;;5.50;4.75;;;;;21.00;56.29;101754.31;2392012;28;45493;-83
2022/05/17 02:54:46;;;;;;;;;6.75;5.25;;;;;21.00;56.30;101747.22;2392914;28;45267;-83
2022/05/17 02:55:56;;;;;;;;;6.75;6.25;;;;;20.99;56.46;101748.13;2393057;28;45185;-82
2022/05/17 02:57:07;;;;;;;;;5.50;5.00;;;;;21.02;56.08;101752.44;2391568;28;47957;-82
2022/05/17 02:58:18;;;;;;;;;6.75;5.25;;;;;21.00;56.20;101748.97;2392547;28;44596;-84
2022/05/17 02:59:28;;;;;;;;;5.25;5.25;;;;;21.03;56.27;101754.19;2391809;28;45279;-84
2022/05/17 03:00:38;;;;;;;;;9.50;7.00;;;;;21.02;56.21;101749.78;2392567;28;45302;-84
2022/05/17 03:01:49;;;;;;;;;7.25;6.00;;;;;21.01;55.72;101750.75;2391841;28;46633;-83
2022/05/17 03:02:59;;;;;;;;;5.50;5.50;;;;;21.01;56.21;101756.91;2385220;28;45233;-84
2022/05/17 03:04:12;;;;;;;;;4.00;4.00;;;;;21.01;56.53;101754.25;2392470;28;45252;-83
2022/05/17 03:05:24;;;;;;;;;8.00;6.00;;;;;21.01;56.20;101750.75;2401542;28;45328;-83
2022/05/17 03:06:35;;;;;;;;;6.25;5.75;;;;;21.00;56.41;101749.88;2399006;28;45356;-83
2022/05/17 03:07:45;;;;;;;;;7.00;5.75;;;;;21.01;56.05;101751.56;2393076;28;45244;-82
2022/05/17 03:08:55;;;;;;;;;5.75;5.00;;;;;21.00;56.46;101754.31;2392909;28;46368;-83
2022/05/17 03:10:06;;;;;;;;;6.00;5.50;;;;;21.00;56.38;101748.97;2392675;28;45282;-83
2022/05/17 03:11:17;;;;;;;;;7.25;6.50;;;;;20.99;56.24;101747.28;2401013;28;48271;-82
2022/05/17 03:12:27;;;;;;;;;8.50;6.00;;;;;20.98;56.29;101748.22;2399319;28;45181;-81
2022/05/17 03:13:38;;;;;;;;;6.50;6.00;;;;;20.98;56.17;101749.09;2392662;28;45183;-81
2022/05/17 03:14:48;;;;;;;;;9.00;7.00;;;;;20.99;56.37;101749.94;2392708;28;44604;-81
2022/05/17 03:15:59;;;;;;;;;6.75;6.25;;;;;20.97;56.59;101744.69;2401247;28;47197;-82
2022/05/17 03:17:12;;;;;;;;;7.00;6.00;;;;;20.96;56.44;101744.78;2398437;28;45275;-83
2022/05/17 03:18:22;;;;;;;;;7.00;7.00;;;;;20.96;56.95;101752.81;2392001;28;45675;-82
2022/05/17 03:19:32;;;;;;;;;8.75;7.00;;;;;20.95;57.06;101735.03;2392212;28;45269;-82
2022/05/17 03:20:43;;;;;;;;;8.50;6.00;;;;;20.92;56.80;101742.28;2394619;28;47101;-82
2022/05/17 03:21:53;;;;;;;;;6.50;6.00;;;;;20.92;56.80;101742.28;2382878;28;44635;-82
2022/05/17 03:23:04;;;;;;;;;8.00;5.50;;;;;20.92;56.71;101742.28;2381710;28;48496;-81
2022/05/17 03:24:15;;;;;;;;;7.00;6.00;;;;;20.93;56.78;101737.81;2392405;28;44639;-83
2022/05/17 03:25:25;;;;;;;;;7.00;7.00;;;;;20.91;56.56;101745.91;2391665;28;47304;-83
2022/05/17 03:26:36;;;;;;;;;11.00;7.50;;;;;20.90;56.71;101738.88;2392470;28;45248;-84
2022/05/17 03:27:46;;;;;;;;;7.50;7.50;;;;;20.90;56.99;101751.34;2392693;28;45663;-84
2022/05/17 03:28:58;;;;;;;;;9.75;6.75;;;;;20.90;56.78;101752.22;2400860;28;45224;-82
2022/05/17 03:30:09;;;;;;;;;6.75;6.00;;;;;20.89;57.32;101753.16;2395285;28;45509;-83
2022/05/17 03:31:19;;;;;;;;;7.25;6.00;;;;;20.89;57.20;101753.16;2388174;28;45308;-82
2022/05/17 03:32:30;;;;;;;;;8.00;8.00;;;;;20.89;57.13;101753.16;2391978;28;48506;-82
2022/05/17 03:33:40;;;;;;;;;7.25;6.25;;;;;20.90;57.16;101751.34;2421846;28;45473;-82
2022/05/17 03:34:51;;;;;;;;;9.25;8.75;;;;;20.90;57.20;101748.69;2392857;28;46466;-83
2022/05/17 03:36:02;;;;;;;;;10.25;7.75;;;;;20.88;56.96;101748.78;2392317;28;45317;-80
2022/05/17 03:37:13;;;;;;;;;7.75;6.75;;;;;20.85;57.04;101743.63;2392621;28;45499;-79
2022/05/17 03:38:23;;;;;;;;;5.50;5.25;;;;;20.86;57.34;101744.50;2392855;28;45378;-80
2022/05/17 03:39:33;;;;;;;;;9.25;8.25;;;;;20.82;57.28;101741.13;2392391;28;45248;-80
2022/05/17 03:40:44;;;;;;;;;10.25;7.75;;;;;;;;2391674;28;45253;-81
2022/05/17 03:41:54;;;;;;;;;10.50;7.25;;;;;20.79;57.03;101730.66;2392141;28;45289;-80
2022/05/17 03:43:04;;;;;;;;;8.50;8.50;;;;;20.79;57.11;101738.69;2392013;28;45327;-80
2022/05/17 03:44:17;;;;;;;;;5.00;5.00;;;;;20.80;57.71;101740.38;2391469;28;47210;-81
2022/05/17 03:45:27;;;;;;;;;8.00;8.00;;;;;20.77;57.41;101737.88;2391185;28;45536;-81
2022/05/17 03:46:38;;;;;;;;;6.00;6.00;;;;;20.76;57.50;101739.72;2391929;28;47067;-81
2022/05/17 03:47:48;;;;;;;;;7.00;5.00;;;;;20.75;57.59;101742.47;2384873;28;44684;-82
2022/05/17 03:49:02;;;;;;;;;8.00;7.50;;;;;20.74;57.49;101744.25;2392117;28;45354;-82
2022/05/17 03:50:13;;;;;;;;;6.75;6.00;;;;;20.72;57.26;101740.00;2391207;28;45312;-87
2022/05/17 03:51:24;;;;;;;;;6.00;6.00;;;;;20.73;57.78;101747.03;2391765;28;46215;-87
2022/05/17 03:52:34;;;;;;;;;9.25;9.00;;;;;20.71;57.78;101740.94;2392716;28;45275;-87
2022/05/17 03:53:46;;;;;;;;;7.50;6.75;;;;;20.71;57.40;101751.63;2391166;28;47582;-87
2022/05/17 03:54:58;;;;;;;;;9.75;7.50;;;;;20.69;57.40;101746.38;2392180;28;45225;-85
2022/05/17 03:56:10;;;;;;;;;6.25;6.25;;;;;20.66;57.50;101747.44;2391447;28;47409;-85
2022/05/17 03:57:20;;;;;;;;;7.00;7.00;;;;;20.65;57.76;101750.16;2385156;28;45248;-85
2022/05/17 03:58:31;;;;;;;;;10.00;9.00;;;;;20.64;57.47;101746.63;2385071;28;48074;-85
2022/05/17 03:59:41;;;;;;;;;6.00;6.00;;;;;20.63;58.03;101750.28;2392003;28;44631;-85
2022/05/17 04:00:51;;;;;;;;;6.00;6.00;;;;;20.62;57.99;101745.88;2392510;28;45979;-85
2022/05/17 04:02:03;;;;;;;;;6.25;6.25;;;;;20.60;57.87;101753.13;2392686;28;45393;-85
2022/05/17 04:03:13;;;;;;;;;6.75;6.75;;;;;20.59;58.27;101748.75;2391855;28;47441;-85
2022/05/17 04:04:24;;;;;;;;;9.00;7.25;;;;;20.57;58.07;101753.28;2385106;28;45439;-85
2022/05/17 04:05:35;;;;;;;;;7.25;6.75;;;;;20.56;58.42;101748.94;2389190;28;46994;-83
2022/05/17 04:06:46;;;;;;;;;5.75;4.50;;;;;20.54;58.03;101748.16;2382922;28;45302;-83
2022/05/17 04:07:57;;;;;;;;;7.50;7.50;;;;;20.51;58.23;101743.88;2432074;28;45449;-83
2022/05/17 04:09:07;;;;;;;;;8.50;7.50;;;;;20.52;58.37;101747.41;2408107;28;45426;-82
2022/05/17 04:10:18;;;;;;;;;6.75;6.00;;;;;20.50;58.49;101751.94;2392325;28;45416;-85
2022/05/17 04:11:28;;;;;;;;;6.75;6.50;;;;;20.49;58.42;101753.78;2392673;28;45168;-85
2022/05/17 04:12:39;;;;;;;;;11.00;8.25;;;;;20.48;58.39;101748.50;2399375;28;47543;-85
2022/05/17 04:13:50;;;;;;;;;8.50;8.50;;;;;20.45;58.44;101755.75;2393550;28;45239;-85
2022/05/17 04:15:00;;;;;;;;;9.75;7.75;;;;;20.44;58.48;101750.53;2384654;28;47231;-85
2022/05/17 04:16:11;;;;;;;;;7.75;7.75;;;;;20.42;58.56;101750.59;2391780;28;45343;-85
2022/05/17 04:17:21;;;;;;;;;6.50;6.00;;;;;20.41;58.20;101753.38;2392339;28;45627;-82
2022/05/17 04:18:31;;;;;;;;;9.00;7.00;;;;;20.40;58.20;101760.50;2392605;28;45258;-81
2022/05/17 04:19:42;;;;;;;;;4.25;4.00;;;;;20.40;58.61;101754.28;2392549;28;45342;-81
2022/05/17 04:21:00;;;;;;;;;12.00;7.25;;;;;20.39;58.57;101755.28;2392617;28;44647;-80
2022/05/17 04:22:11;;;;;;;;;5.00;5.00;;;;;20.38;58.33;101751.72;2400781;28;47590;-81
2022/05/17 04:23:21;;;;;;;;;8.75;6.50;;;;;20.35;58.99;101746.56;2395119;28;45374;-83
2022/05/17 04:24:31;;;;;;;;;9.50;8.00;;;;;20.35;59.11;101754.56;2391781;28;45536;-83
2022/05/17 04:25:42;;;;;;;;;8.50;8.50;;;;;20.34;58.88;101747.53;2392314;28;44710;-82
2022/05/17 04:26:55;;;;;;;;;8.00;7.50;;;;;20.33;58.92;101745.81;2392401;28;45411;-81
2022/05/17 04:28:06;;;;;;;;;7.50;6.50;;;;;20.33;59.05;101748.47;2392363;28;45149;-78
2022/05/17 04:29:16;;;;;;;;;7.50;7.00;;;;;20.32;59.17;101744.09;2392713;28;46339;-78
2022/05/17 04:30:27;;;;;;;;;7.25;7.25;;;;;20.30;59.29;101751.31;2395418;28;45129;-79
2022/05/17 04:31:37;;;;;;;;;10.50;8.00;;;;;20.28;59.21;101754.06;2392392;28;46457;-83
2022/05/17 04:32:48;;;;;;;;;9.25;8.00;;;;;20.28;59.26;101753.22;2400561;28;45252;-83
2022/05/17 04:33:59;;;;;;;;;9.50;8.00;;;;;20.28;58.97;101758.56;2443123;28;47487;-83
2022/05/17 04:35:11;;;;;;;;;7.75;7.75;;;;;20.26;59.42;101750.66;2414585;28;44619;-82
2022/05/17 04:36:22;;;;;;;;;11.50;8.25;;;;;20.27;59.30;101759.53;2392011;28;45353;-81
2022/05/17 04:37:33;;;;;;;;;13.25;10.00;;;;;20.26;58.98;101755.13;2392391;28;44864;-81
2022/05/17 04:38:43;;;;;;;;;12.00;9.50;;;;;20.25;59.12;101759.59;2391340;28;46986;-81
2022/05/17 04:39:53;;;;;;;;;8.25;7.00;;;;;20.24;59.47;101763.22;2391812;28;45408;-80
2022/05/17 04:41:04;;;;;;;;;7.00;7.00;;;;;20.22;59.50;101763.28;2391509;28;46728;-80
2022/05/17 04:42:14;;;;;;;;;9.50;8.00;;;;;20.22;59.43;101755.28;2401075;28;45149;-81
2022/05/17 04:43:25;;;;;;;;;9.25;7.00;;;;;20.21;59.71;101758.94;2391427;28;46817;-81
2022/05/17 04:44:35;;;;;;;;;9.75;8.00;;;;;20.21;59.19;101763.41;2391639;28;44765;-80
2022/05/17 04:45:46;;;;;;;;;8.00;8.00;;;;;20.20;59.53;101764.38;2392052;28;46143;-80
2022/05/17 04:46:57;;;;;;;;;10.50;8.00;;;;;20.20;59.67;101770.53;2392283;28;45178;-80
2022/05/17 04:48:07;;;;;;;;;11.00;9.00;;;;;20.18;59.58;101768.91;2391509;28;46563;-80
2022/05/17 04:49:18;;;;;;;;;9.50;7.00;;;;;20.19;59.44;101770.63;2392070;28;44627;-80
2022/05/17 04:50:29;;;;;;;;;10.50;7.50;;;;;20.19;59.47;101765.31;2392157;28;45399;-80
2022/05/17 04:51:39;;;;;;;;;11.25;9.50;;;;;20.17;59.51;101770.75;2391705;28;45279;-82
2022/05/17 04:52:50;;;;;;;;;13.75;8.25;;;;;20.17;59.75;101764.53;2392204;28;45467;-81
2022/05/17 04:54:00;;;;;;;;;10.75;8.00;;;;;20.16;59.83;101771.66;2392110;28;45284;-80
2022/05/17 04:55:12;;;;;;;;;9.00;8.75;;;;;20.14;59.96;101770.91;2392196;28;45441;-80
2022/05/17 04:56:24;;;;;;;;;9.00;7.00;;;;;20.14;59.92;101773.56;2392200;28;45387;-81
2022/05/17 04:57:35;;;;;;;;;10.00;8.50;;;;;20.15;60.10;101769.94;2391901;28;45390;-81
2022/05/17 04:58:45;;;;;;;;;7.50;7.00;;;;;20.13;60.17;101772.72;2392334;28;45219;-82
2022/05/17 04:59:57;;;;;;;;;10.00;8.00;;;;;20.14;60.02;101768.25;2392088;28;45501;-82
2022/05/17 05:01:07;;;;;;;;;6.00;5.75;;;;;20.13;59.68;101770.03;2429543;28;45207;-79
2022/05/17 05:02:18;;;;;;;;;7.50;7.50;;;;;20.12;60.02;101776.31;2391615;28;46175;-78
2022/05/17 05:03:29;;;;;;;;;9.50;7.50;;;;;20.12;60.21;101770.13;2392355;28;45229;-79
2022/05/17 05:04:39;;;;;;;;;8.00;8.00;;;;;20.11;59.94;101773.75;2392255;28;46441;-79
2022/05/17 05:05:50;;;;;;;;;8.75;8.50;;;;;20.11;60.33;101776.41;2391975;28;45248;-78
2022/05/17 05:07:00;;;;;;;;;10.25;7.75;;;;;20.10;60.09;101780.84;2392120;28;45290;-78
2022/05/17 05:08:11;;;;;;;;;8.50;8.25;;;;;20.09;60.17;101781.81;2388203;28;45284;-78
2022/05/17 05:09:21;;;;;;;;;8.50;8.25;;;;;20.10;60.21;101777.34;2389130;28;45335;-78
2022/05/17 05:10:32;;;;;;;;;8.00;8.00;;;;;20.09;59.96;101771.13;2391913;28;45343;-82
2022/05/17 05:11:42;;;;;;;;;11.50;9.00;;;;;20.09;60.10;101772.94;2400675;28;48050;-81
2022/05/17 05:12:52;;;;;;;;;12.50;10.00;;;;;20.08;60.36;101773.88;2398626;28;45257;-81
2022/05/17 05:14:03;;;;;;;;;13.00;9.75;;;;;20.08;60.13;101779.22;2391301;28;47568;-81
2022/05/17 05:15:14;;;;;;;;;13.25;9.00;;;;;20.08;59.93;101781.88;2391173;28;45442;-82
2022/05/17 05:16:25;;;;;;;;;7.25;6.50;;;;;20.07;60.23;101783.72;2391085;28;48497;-81
2022/05/17 05:17:37;;;;;;;;;9.50;8.75;;;;;20.09;60.37;101783.63;2391697;28;45207;-79
2022/05/17 05:18:47;;;;;;;;;10.75;10.75;;;;;20.08;60.16;101785.41;2398815;28;47548;-81
2022/05/17 05:19:58;;;;;;;;;11.25;9.25;;;;;20.08;60.11;101780.09;2398579;28;45304;-77
2022/05/17 05:21:12;;;;;;;;;11.00;9.25;;;;;20.09;60.55;101788.94;2391934;28;46301;-79
2022/05/17 05:22:22;;;;;;;;;10.75;8.00;;;;;20.09;60.41;101788.94;2392141;28;44676;-78
2022/05/17 05:23:33;;;;;;;;;10.50;9.00;;;;;20.08;60.16;101785.41;2400651;28;47350;-78
2022/05/17 05:24:43;;;;;;;;;9.00;7.75;;;;;20.10;60.54;101796.03;2398493;28;45374;-78
2022/05/17 05:26:00;;;;;;;;;9.75;9.75;;;;;20.10;60.45;101796.03;2388847;28;45803;-78
2022/05/17 05:27:11;;;;;;;;;10.00;8.00;;;;;20.10;60.83;101793.34;2391647;28;45428;-77
2022/05/17 05:28:21;;;;;;;;;12.25;10.00;;;;;20.11;60.56;101801.28;2391101;28;48268;-78
2022/05/17 05:29:33;;;;;;;;;9.50;6.75;;;;;20.12;60.33;101796.81;2391075;28;45240;-77
2022/05/17 05:30:43;;;;;;;;;11.00;11.00;;;;;20.14;60.62;101802.94;2392024;28;45348;-78
2022/05/17 05:31:53;;;;;;;;;10.25;9.50;;;;;20.12;60.98;101797.66;2391764;28;44614;-77
2022/05/17 05:33:04;;;;;;;;;11.50;9.00;;;;;20.14;60.58;101802.94;2396464;28;45358;-77
2022/05/17 05:34:15;;;;;;;;;10.00;10.00;;;;;20.14;60.29;101800.25;2391804;28;45295;-77